sensor_id;sensor_type;location;lat;lon;timestamp;temperature;humidity
16198;DHT22;8206;51.440;6.914;2023-03-18T00:00:39;11.20;99.90
16198;DHT22;8206;51.440;6.914;2023-03-18T00:03:06;11.10;99.90
16198;DHT22;8206;51.440;6.914;2023-03-18T00:05:33;11.10;99.90
16198;DHT22;8206;51.440;6.914;2023-03-18T00:08:00;11.10;99.90
16198;DHT22;8206;51.440;6.914;2023-03-18T00:10:28;11.10;99.90
16198;DHT22;8206;51.440;6.914;2023-03-18T00:12:55;11.20;99.90
16198;DHT22;8206;51.440;6.914;2023-03-18T00:15:22;11.20;99.90
16198;DHT22;8206;51.440;6.914;2023-03-18T00:17:49;11.20;99.90
16198;DHT22;8206;51.440;6.914;2023-03-18T00:20:17;11.10;99.90
16198;DHT22;8206;51.440;6.914;2023-03-18T00:22:53;11.10;99.90
16198;DHT22;8206;51.440;6.914;2023-03-18T00:25:22;11.10;99.90
16198;DHT22;8206;51.440;6.914;2023-03-18T00:27:50;11.00;99.90
16198;DHT22;8206;51.440;6.914;2023-03-18T00:30:17;11.00;99.90
16198;DHT22;8206;51.440;6.914;2023-03-18T00:32:44;10.90;99.90
16198;DHT22;8206;51.440;6.914;2023-03-18T00:35:10;10.90;99.90
16198;DHT22;8206;51.440;6.914;2023-03-18T00:37:37;10.90;99.90
16198;DHT22;8206;51.440;6.914;2023-03-18T00:40:06;10.90;99.90
16198;DHT22;8206;51.440;6.914;2023-03-18T00:42:36;11.00;99.90
16198;DHT22;8206;51.440;6.914;2023-03-18T00:45:09;11.00;99.90
16198;DHT22;8206;51.440;6.914;2023-03-18T00:47:36;10.90;99.90
16198;DHT22;8206;51.440;6.914;2023-03-18T00:50:04;10.90;99.90
16198;DHT22;8206;51.440;6.914;2023-03-18T00:52:31;10.80;99.90
16198;DHT22;8206;51.440;6.914;2023-03-18T00:54:58;10.80;99.90
16198;DHT22;8206;51.440;6.914;2023-03-18T00:57:25;10.80;99.90
16198;DHT22;8206;51.440;6.914;2023-03-18T00:59:52;10.80;99.90
16198;DHT22;8206;51.440;6.914;2023-03-18T01:02:20;10.70;99.90
16198;DHT22;8206;51.440;6.914;2023-03-18T01:04:48;10.70;99.90
16198;DHT22;8206;51.440;6.914;2023-03-18T01:07:15;10.60;99.90
16198;DHT22;8206;51.440;6.914;2023-03-18T01:09:42;10.60;99.90
16198;DHT22;8206;51.440;6.914;2023-03-18T01:12:10;10.60;99.90
16198;DHT22;8206;51.440;6.914;2023-03-18T01:14:38;10.60;99.90
16198;DHT22;8206;51.440;6.914;2023-03-18T01:17:06;10.60;99.90
16198;DHT22;8206;51.440;6.914;2023-03-18T01:19:35;10.60;99.90
16198;DHT22;8206;51.440;6.914;2023-03-18T01:22:02;10.50;99.90
16198;DHT22;8206;51.440;6.914;2023-03-18T01:24:29;10.40;99.90
16198;DHT22;8206;51.440;6.914;2023-03-18T01:26:55;10.50;99.90
16198;DHT22;8206;51.440;6.914;2023-03-18T01:29:22;10.50;99.90
16198;DHT22;8206;51.440;6.914;2023-03-18T01:31:49;10.60;99.90
16198;DHT22;8206;51.440;6.914;2023-03-18T01:34:16;10.80;99.90
16198;DHT22;8206;51.440;6.914;2023-03-18T01:36:44;10.90;99.90
16198;DHT22;8206;51.440;6.914;2023-03-18T01:39:12;10.90;99.90
16198;DHT22;8206;51.440;6.914;2023-03-18T01:41:39;11.00;99.90
16198;DHT22;8206;51.440;6.914;2023-03-18T01:44:11;11.00;99.90
16198;DHT22;8206;51.440;6.914;2023-03-18T01:46:40;11.10;99.90
16198;DHT22;8206;51.440;6.914;2023-03-18T01:49:11;11.10;99.90
16198;DHT22;8206;51.440;6.914;2023-03-18T01:51:42;11.10;99.90
16198;DHT22;8206;51.440;6.914;2023-03-18T01:54:12;11.10;99.90
16198;DHT22;8206;51.440;6.914;2023-03-18T01:56:41;11.20;99.90
16198;DHT22;8206;51.440;6.914;2023-03-18T01:59:09;11.20;99.90
16198;DHT22;8206;51.440;6.914;2023-03-18T02:01:40;11.30;99.90
16198;DHT22;8206;51.440;6.914;2023-03-18T02:04:08;11.30;99.90
16198;DHT22;8206;51.440;6.914;2023-03-18T02:06:36;11.30;99.90
16198;DHT22;8206;51.440;6.914;2023-03-18T02:09:04;11.20;99.90
16198;DHT22;8206;51.440;6.914;2023-03-18T02:11:35;11.20;99.90
16198;DHT22;8206;51.440;6.914;2023-03-18T02:14:03;11.20;99.90
16198;DHT22;8206;51.440;6.914;2023-03-18T02:16:34;11.20;99.90
16198;DHT22;8206;51.440;6.914;2023-03-18T02:19:10;11.30;99.90
16198;DHT22;8206;51.440;6.914;2023-03-18T02:21:45;11.30;99.90
16198;DHT22;8206;51.440;6.914;2023-03-18T02:24:23;11.20;99.90
16198;DHT22;8206;51.440;6.914;2023-03-18T02:26:59;11.30;99.90
16198;DHT22;8206;51.440;6.914;2023-03-18T02:29:30;11.20;99.90
16198;DHT22;8206;51.440;6.914;2023-03-18T02:32:00;11.20;99.90
16198;DHT22;8206;51.440;6.914;2023-03-18T02:34:29;11.10;99.90
16198;DHT22;8206;51.440;6.914;2023-03-18T02:36:56;11.00;99.90
16198;DHT22;8206;51.440;6.914;2023-03-18T02:39:23;11.00;99.90
16198;DHT22;8206;51.440;6.914;2023-03-18T02:41:49;10.90;99.90
16198;DHT22;8206;51.440;6.914;2023-03-18T02:44:17;10.70;99.90
16198;DHT22;8206;51.440;6.914;2023-03-18T02:50:08;10.50;99.90
16198;DHT22;8206;51.440;6.914;2023-03-18T02:52:35;10.40;99.90
16198;DHT22;8206;51.440;6.914;2023-03-18T02:55:03;10.30;99.90
16198;DHT22;8206;51.440;6.914;2023-03-18T02:57:31;10.10;99.90
16198;DHT22;8206;51.440;6.914;2023-03-18T02:59:58;10.00;99.90
16198;DHT22;8206;51.440;6.914;2023-03-18T03:02:24;9.90;99.90
16198;DHT22;8206;51.440;6.914;2023-03-18T03:04:51;9.90;99.90
16198;DHT22;8206;51.440;6.914;2023-03-18T03:07:19;10.00;99.90
16198;DHT22;8206;51.440;6.914;2023-03-18T03:09:46;10.10;99.90
16198;DHT22;8206;51.440;6.914;2023-03-18T03:12:13;10.30;99.90
16198;DHT22;8206;51.440;6.914;2023-03-18T03:14:39;10.40;99.90
16198;DHT22;8206;51.440;6.914;2023-03-18T03:17:06;10.40;99.90
16198;DHT22;8206;51.440;6.914;2023-03-18T03:19:34;10.50;99.90
16198;DHT22;8206;51.440;6.914;2023-03-18T03:22:00;10.50;99.90
16198;DHT22;8206;51.440;6.914;2023-03-18T03:24:28;10.40;99.90
16198;DHT22;8206;51.440;6.914;2023-03-18T03:26:55;10.40;99.90
16198;DHT22;8206;51.440;6.914;2023-03-18T03:29:22;10.30;99.90
16198;DHT22;8206;51.440;6.914;2023-03-18T03:31:48;10.20;99.90
16198;DHT22;8206;51.440;6.914;2023-03-18T03:34:15;10.20;99.90
16198;DHT22;8206;51.440;6.914;2023-03-18T03:36:42;10.20;99.90
16198;DHT22;8206;51.440;6.914;2023-03-18T03:39:09;10.20;99.90
16198;DHT22;8206;51.440;6.914;2023-03-18T03:41:38;10.10;99.90
16198;DHT22;8206;51.440;6.914;2023-03-18T03:44:04;10.10;99.90
16198;DHT22;8206;51.440;6.914;2023-03-18T03:46:31;10.10;99.90
16198;DHT22;8206;51.440;6.914;2023-03-18T03:48:58;10.10;99.90
16198;DHT22;8206;51.440;6.914;2023-03-18T03:51:25;10.10;99.90
16198;DHT22;8206;51.440;6.914;2023-03-18T03:53:52;10.20;99.90
16198;DHT22;8206;51.440;6.914;2023-03-18T03:56:19;10.20;99.90
16198;DHT22;8206;51.440;6.914;2023-03-18T03:58:48;10.30;99.90
16198;DHT22;8206;51.440;6.914;2023-03-18T04:01:14;10.30;99.90
16198;DHT22;8206;51.440;6.914;2023-03-18T04:03:41;10.30;99.90
16198;DHT22;8206;51.440;6.914;2023-03-18T04:06:08;10.40;99.90
16198;DHT22;8206;51.440;6.914;2023-03-18T04:08:35;10.40;99.90
16198;DHT22;8206;51.440;6.914;2023-03-18T04:11:02;10.50;99.90
16198;DHT22;8206;51.440;6.914;2023-03-18T04:13:29;10.60;99.90
16198;DHT22;8206;51.440;6.914;2023-03-18T04:15:57;10.60;99.90
16198;DHT22;8206;51.440;6.914;2023-03-18T04:18:24;10.60;99.90
16198;DHT22;8206;51.440;6.914;2023-03-18T04:20:51;10.60;99.90
16198;DHT22;8206;51.440;6.914;2023-03-18T04:23:18;10.60;99.90
16198;DHT22;8206;51.440;6.914;2023-03-18T04:25:45;10.60;99.90
16198;DHT22;8206;51.440;6.914;2023-03-18T04:28:12;10.60;99.90
16198;DHT22;8206;51.440;6.914;2023-03-18T04:30:39;10.60;99.90
16198;DHT22;8206;51.440;6.914;2023-03-18T04:33:07;10.60;99.90
16198;DHT22;8206;51.440;6.914;2023-03-18T04:35:34;10.60;99.90
16198;DHT22;8206;51.440;6.914;2023-03-18T04:38:02;10.70;99.90
16198;DHT22;8206;51.440;6.914;2023-03-18T04:40:28;10.60;99.90
16198;DHT22;8206;51.440;6.914;2023-03-18T04:42:55;10.70;99.90
16198;DHT22;8206;51.440;6.914;2023-03-18T04:45:22;10.70;99.90
16198;DHT22;8206;51.440;6.914;2023-03-18T04:47:49;10.70;99.90
16198;DHT22;8206;51.440;6.914;2023-03-18T04:50:17;10.70;99.90
16198;DHT22;8206;51.440;6.914;2023-03-18T04:52:45;10.70;99.90
16198;DHT22;8206;51.440;6.914;2023-03-18T04:55:13;10.80;99.90
16198;DHT22;8206;51.440;6.914;2023-03-18T04:57:41;10.80;99.90
16198;DHT22;8206;51.440;6.914;2023-03-18T05:00:10;10.80;99.90
16198;DHT22;8206;51.440;6.914;2023-03-18T05:02:38;10.80;99.90
16198;DHT22;8206;51.440;6.914;2023-03-18T05:05:06;10.90;99.90
16198;DHT22;8206;51.440;6.914;2023-03-18T05:07:34;10.90;99.90
16198;DHT22;8206;51.440;6.914;2023-03-18T05:10:01;10.90;99.90
16198;DHT22;8206;51.440;6.914;2023-03-18T05:12:28;11.00;99.90
16198;DHT22;8206;51.440;6.914;2023-03-18T05:14:55;11.00;99.90
16198;DHT22;8206;51.440;6.914;2023-03-18T05:17:21;10.90;99.90
16198;DHT22;8206;51.440;6.914;2023-03-18T05:19:49;11.00;99.90
16198;DHT22;8206;51.440;6.914;2023-03-18T05:22:17;11.00;99.90
16198;DHT22;8206;51.440;6.914;2023-03-18T05:24:46;11.00;99.90
16198;DHT22;8206;51.440;6.914;2023-03-18T05:27:14;11.00;99.90
16198;DHT22;8206;51.440;6.914;2023-03-18T05:29:41;11.00;99.90
16198;DHT22;8206;51.440;6.914;2023-03-18T05:32:09;11.00;99.90
16198;DHT22;8206;51.440;6.914;2023-03-18T05:34:38;11.00;99.90
16198;DHT22;8206;51.440;6.914;2023-03-18T05:37:06;11.10;99.90
16198;DHT22;8206;51.440;6.914;2023-03-18T05:39:33;11.10;99.90
16198;DHT22;8206;51.440;6.914;2023-03-18T05:42:02;11.00;99.90
16198;DHT22;8206;51.440;6.914;2023-03-18T05:44:29;11.10;99.90
16198;DHT22;8206;51.440;6.914;2023-03-18T05:46:57;11.00;99.90
16198;DHT22;8206;51.440;6.914;2023-03-18T05:49:23;11.00;99.90
16198;DHT22;8206;51.440;6.914;2023-03-18T05:51:51;11.00;99.90
16198;DHT22;8206;51.440;6.914;2023-03-18T05:54:18;11.00;99.90
16198;DHT22;8206;51.440;6.914;2023-03-18T05:56:45;11.00;99.90
16198;DHT22;8206;51.440;6.914;2023-03-18T05:59:13;11.00;99.90
16198;DHT22;8206;51.440;6.914;2023-03-18T06:01:40;11.10;99.90
16198;DHT22;8206;51.440;6.914;2023-03-18T06:04:08;11.10;99.90
16198;DHT22;8206;51.440;6.914;2023-03-18T06:06:35;11.10;99.90
16198;DHT22;8206;51.440;6.914;2023-03-18T06:09:04;11.20;99.90
16198;DHT22;8206;51.440;6.914;2023-03-18T06:11:31;11.20;99.90
16198;DHT22;8206;51.440;6.914;2023-03-18T06:13:58;11.10;99.90
16198;DHT22;8206;51.440;6.914;2023-03-18T06:16:26;11.10;99.90
16198;DHT22;8206;51.440;6.914;2023-03-18T06:18:53;11.20;99.90
16198;DHT22;8206;51.440;6.914;2023-03-18T06:21:19;11.30;99.90
16198;DHT22;8206;51.440;6.914;2023-03-18T06:23:46;11.30;99.90
16198;DHT22;8206;51.440;6.914;2023-03-18T06:26:13;11.30;99.90
16198;DHT22;8206;51.440;6.914;2023-03-18T06:28:39;11.40;99.90
16198;DHT22;8206;51.440;6.914;2023-03-18T06:31:06;11.40;99.90
16198;DHT22;8206;51.440;6.914;2023-03-18T06:33:36;11.40;99.90
16198;DHT22;8206;51.440;6.914;2023-03-18T06:36:04;11.40;99.90
16198;DHT22;8206;51.440;6.914;2023-03-18T06:38:30;11.40;99.90
16198;DHT22;8206;51.440;6.914;2023-03-18T06:40:57;11.50;99.90
16198;DHT22;8206;51.440;6.914;2023-03-18T06:43:24;11.50;99.90
16198;DHT22;8206;51.440;6.914;2023-03-18T06:45:51;11.50;99.90
16198;DHT22;8206;51.440;6.914;2023-03-18T06:48:19;11.50;99.90
16198;DHT22;8206;51.440;6.914;2023-03-18T06:50:47;11.50;99.90
16198;DHT22;8206;51.440;6.914;2023-03-18T06:53:14;11.60;99.90
16198;DHT22;8206;51.440;6.914;2023-03-18T06:55:42;11.60;99.90
16198;DHT22;8206;51.440;6.914;2023-03-18T06:58:08;11.70;99.90
16198;DHT22;8206;51.440;6.914;2023-03-18T07:00:35;11.80;99.90
16198;DHT22;8206;51.440;6.914;2023-03-18T07:03:02;11.80;99.90
16198;DHT22;8206;51.440;6.914;2023-03-18T07:05:29;11.70;99.90
16198;DHT22;8206;51.440;6.914;2023-03-18T07:07:58;11.70;99.90
16198;DHT22;8206;51.440;6.914;2023-03-18T07:10:28;11.70;99.90
16198;DHT22;8206;51.440;6.914;2023-03-18T07:12:55;11.70;99.90
16198;DHT22;8206;51.440;6.914;2023-03-18T07:15:23;11.70;99.90
16198;DHT22;8206;51.440;6.914;2023-03-18T07:17:51;11.60;99.90
16198;DHT22;8206;51.440;6.914;2023-03-18T07:20:18;11.60;99.90
16198;DHT22;8206;51.440;6.914;2023-03-18T07:22:48;11.70;99.90
16198;DHT22;8206;51.440;6.914;2023-03-18T07:25:17;11.80;99.90
16198;DHT22;8206;51.440;6.914;2023-03-18T07:27:44;11.90;99.90
16198;DHT22;8206;51.440;6.914;2023-03-18T07:30:12;12.00;99.90
16198;DHT22;8206;51.440;6.914;2023-03-18T07:32:38;12.10;99.90
16198;DHT22;8206;51.440;6.914;2023-03-18T07:35:06;12.20;99.90
16198;DHT22;8206;51.440;6.914;2023-03-18T07:37:35;12.30;99.90
16198;DHT22;8206;51.440;6.914;2023-03-18T07:40:02;12.30;99.90
16198;DHT22;8206;51.440;6.914;2023-03-18T07:42:31;12.40;99.90
16198;DHT22;8206;51.440;6.914;2023-03-18T07:44:58;12.40;99.90
16198;DHT22;8206;51.440;6.914;2023-03-18T07:47:24;12.40;99.90
16198;DHT22;8206;51.440;6.914;2023-03-18T07:49:51;12.50;99.90
16198;DHT22;8206;51.440;6.914;2023-03-18T07:52:18;12.50;99.90
16198;DHT22;8206;51.440;6.914;2023-03-18T07:54:44;12.50;99.90
16198;DHT22;8206;51.440;6.914;2023-03-18T07:57:11;12.50;99.90
16198;DHT22;8206;51.440;6.914;2023-03-18T07:59:40;12.50;99.90
16198;DHT22;8206;51.440;6.914;2023-03-18T08:02:09;12.60;99.90
16198;DHT22;8206;51.440;6.914;2023-03-18T08:04:36;12.60;99.90
16198;DHT22;8206;51.440;6.914;2023-03-18T08:07:03;12.70;99.90
16198;DHT22;8206;51.440;6.914;2023-03-18T08:09:29;12.80;99.90
16198;DHT22;8206;51.440;6.914;2023-03-18T08:11:57;13.00;99.90
16198;DHT22;8206;51.440;6.914;2023-03-18T08:14:23;13.20;99.90
16198;DHT22;8206;51.440;6.914;2023-03-18T08:16:51;13.30;99.90
16198;DHT22;8206;51.440;6.914;2023-03-18T08:19:18;13.30;99.90
16198;DHT22;8206;51.440;6.914;2023-03-18T08:21:45;13.40;99.90
16198;DHT22;8206;51.440;6.914;2023-03-18T08:24:12;13.50;99.90
16198;DHT22;8206;51.440;6.914;2023-03-18T08:26:39;13.70;99.90
16198;DHT22;8206;51.440;6.914;2023-03-18T08:29:06;13.70;99.90
16198;DHT22;8206;51.440;6.914;2023-03-18T08:31:33;13.80;99.90
16198;DHT22;8206;51.440;6.914;2023-03-18T08:34:01;13.90;99.90
16198;DHT22;8206;51.440;6.914;2023-03-18T08:36:27;14.20;99.90
16198;DHT22;8206;51.440;6.914;2023-03-18T08:38:54;14.20;99.90
16198;DHT22;8206;51.440;6.914;2023-03-18T08:41:21;14.30;99.90
16198;DHT22;8206;51.440;6.914;2023-03-18T08:43:50;14.50;99.90
16198;DHT22;8206;51.440;6.914;2023-03-18T08:46:17;14.70;99.90
16198;DHT22;8206;51.440;6.914;2023-03-18T08:48:44;14.80;99.90
16198;DHT22;8206;51.440;6.914;2023-03-18T08:51:12;14.80;99.90
16198;DHT22;8206;51.440;6.914;2023-03-18T08:53:39;14.50;99.90
16198;DHT22;8206;51.440;6.914;2023-03-18T08:56:06;14.50;99.90
16198;DHT22;8206;51.440;6.914;2023-03-18T08:58:34;14.40;99.90
16198;DHT22;8206;51.440;6.914;2023-03-18T09:01:01;14.70;99.90
16198;DHT22;8206;51.440;6.914;2023-03-18T09:03:29;14.80;99.90
16198;DHT22;8206;51.440;6.914;2023-03-18T09:05:56;14.90;99.90
16198;DHT22;8206;51.440;6.914;2023-03-18T09:08:24;15.10;99.90
16198;DHT22;8206;51.440;6.914;2023-03-18T09:10:52;15.20;99.90
16198;DHT22;8206;51.440;6.914;2023-03-18T09:13:20;15.50;99.90
16198;DHT22;8206;51.440;6.914;2023-03-18T09:15:47;15.80;99.90
16198;DHT22;8206;51.440;6.914;2023-03-18T09:18:13;16.10;99.90
16198;DHT22;8206;51.440;6.914;2023-03-18T09:20:41;16.20;99.90
16198;DHT22;8206;51.440;6.914;2023-03-18T09:23:08;16.00;99.90
16198;DHT22;8206;51.440;6.914;2023-03-18T09:25:37;15.90;99.90
16198;DHT22;8206;51.440;6.914;2023-03-18T09:28:04;16.00;99.90
16198;DHT22;8206;51.440;6.914;2023-03-18T09:30:31;15.80;99.90
16198;DHT22;8206;51.440;6.914;2023-03-18T09:32:58;15.80;99.90
16198;DHT22;8206;51.440;6.914;2023-03-18T09:35:24;15.70;99.90
16198;DHT22;8206;51.440;6.914;2023-03-18T09:37:53;15.70;99.90
16198;DHT22;8206;51.440;6.914;2023-03-18T09:40:24;15.70;99.90
16198;DHT22;8206;51.440;6.914;2023-03-18T09:43:00;15.60;99.90
16198;DHT22;8206;51.440;6.914;2023-03-18T09:45:34;15.60;99.90
16198;DHT22;8206;51.440;6.914;2023-03-18T09:48:25;15.40;99.90
16198;DHT22;8206;51.440;6.914;2023-03-18T09:50:58;15.30;99.90
16198;DHT22;8206;51.440;6.914;2023-03-18T09:53:37;15.30;99.90
16198;DHT22;8206;51.440;6.914;2023-03-18T09:56:12;15.30;99.90
16198;DHT22;8206;51.440;6.914;2023-03-18T09:58:46;15.30;99.90
16198;DHT22;8206;51.440;6.914;2023-03-18T10:01:15;15.40;99.90
16198;DHT22;8206;51.440;6.914;2023-03-18T10:03:46;15.50;99.90
16198;DHT22;8206;51.440;6.914;2023-03-18T10:06:15;15.60;99.90
16198;DHT22;8206;51.440;6.914;2023-03-18T10:08:49;15.70;99.90
16198;DHT22;8206;51.440;6.914;2023-03-18T10:11:23;15.70;99.90
16198;DHT22;8206;51.440;6.914;2023-03-18T10:13:59;15.70;99.90
16198;DHT22;8206;51.440;6.914;2023-03-18T10:16:41;15.60;99.90
16198;DHT22;8206;51.440;6.914;2023-03-18T10:19:09;15.60;99.90
16198;DHT22;8206;51.440;6.914;2023-03-18T10:21:41;15.60;99.90
16198;DHT22;8206;51.440;6.914;2023-03-18T10:24:21;15.70;99.90
16198;DHT22;8206;51.440;6.914;2023-03-18T10:26:58;15.70;99.90
16198;DHT22;8206;51.440;6.914;2023-03-18T10:29:36;15.70;99.90
16198;DHT22;8206;51.440;6.914;2023-03-18T10:32:10;15.80;99.90
16198;DHT22;8206;51.440;6.914;2023-03-18T10:34:48;16.00;99.90
16198;DHT22;8206;51.440;6.914;2023-03-18T10:37:29;16.30;99.90
16198;DHT22;8206;51.440;6.914;2023-03-18T10:39:59;16.20;99.90
16198;DHT22;8206;51.440;6.914;2023-03-18T10:42:27;16.10;99.90
16198;DHT22;8206;51.440;6.914;2023-03-18T10:45:07;15.90;99.90
16198;DHT22;8206;51.440;6.914;2023-03-18T10:47:37;16.00;99.90
16198;DHT22;8206;51.440;6.914;2023-03-18T10:50:15;16.10;99.90
16198;DHT22;8206;51.440;6.914;2023-03-18T10:52:47;16.20;99.90
16198;DHT22;8206;51.440;6.914;2023-03-18T10:55:18;16.20;99.90
16198;DHT22;8206;51.440;6.914;2023-03-18T10:57:46;16.20;99.90
16198;DHT22;8206;51.440;6.914;2023-03-18T11:00:26;16.20;99.90
16198;DHT22;8206;51.440;6.914;2023-03-18T11:02:54;16.30;99.90
16198;DHT22;8206;51.440;6.914;2023-03-18T11:05:23;16.30;99.90
16198;DHT22;8206;51.440;6.914;2023-03-18T11:07:56;16.30;99.90
16198;DHT22;8206;51.440;6.914;2023-03-18T11:10:25;16.20;99.90
16198;DHT22;8206;51.440;6.914;2023-03-18T11:12:56;16.10;99.90
16198;DHT22;8206;51.440;6.914;2023-03-18T11:15:25;16.10;99.90
16198;DHT22;8206;51.440;6.914;2023-03-18T11:17:57;16.20;99.90
16198;DHT22;8206;51.440;6.914;2023-03-18T11:20:31;16.40;99.90
16198;DHT22;8206;51.440;6.914;2023-03-18T11:23:14;16.50;99.90
16198;DHT22;8206;51.440;6.914;2023-03-18T11:25:44;16.60;99.90
16198;DHT22;8206;51.440;6.914;2023-03-18T11:28:19;16.70;99.90
16198;DHT22;8206;51.440;6.914;2023-03-18T11:30:50;16.80;99.90
16198;DHT22;8206;51.440;6.914;2023-03-18T11:33:18;16.80;99.90
16198;DHT22;8206;51.440;6.914;2023-03-18T11:35:51;16.80;99.90
16198;DHT22;8206;51.440;6.914;2023-03-18T11:38:21;16.80;99.90
16198;DHT22;8206;51.440;6.914;2023-03-18T11:40:51;16.90;99.90
16198;DHT22;8206;51.440;6.914;2023-03-18T11:43:20;17.10;99.90
16198;DHT22;8206;51.440;6.914;2023-03-18T11:45:55;17.30;99.90
16198;DHT22;8206;51.440;6.914;2023-03-18T11:48:31;17.30;99.90
16198;DHT22;8206;51.440;6.914;2023-03-18T11:51:26;17.30;99.90
16198;DHT22;8206;51.440;6.914;2023-03-18T11:54:08;17.30;99.90
16198;DHT22;8206;51.440;6.914;2023-03-18T11:56:41;17.30;99.90
16198;DHT22;8206;51.440;6.914;2023-03-18T11:59:27;17.30;99.90
16198;DHT22;8206;51.440;6.914;2023-03-18T12:02:08;17.40;99.90
16198;DHT22;8206;51.440;6.914;2023-03-18T12:04:54;17.60;99.90
16198;DHT22;8206;51.440;6.914;2023-03-18T12:07:40;17.60;99.90
16198;DHT22;8206;51.440;6.914;2023-03-18T12:10:15;17.80;99.90
16198;DHT22;8206;51.440;6.914;2023-03-18T12:13:00;17.90;99.90
16198;DHT22;8206;51.440;6.914;2023-03-18T12:15:37;17.90;99.90
16198;DHT22;8206;51.440;6.914;2023-03-18T12:18:22;17.90;99.90
16198;DHT22;8206;51.440;6.914;2023-03-18T12:20:54;18.00;99.90
16198;DHT22;8206;51.440;6.914;2023-03-18T12:23:45;18.10;99.90
16198;DHT22;8206;51.440;6.914;2023-03-18T12:26:19;18.10;99.90
16198;DHT22;8206;51.440;6.914;2023-03-18T12:31:54;17.80;99.90
16198;DHT22;8206;51.440;6.914;2023-03-18T12:34:41;17.90;99.90
16198;DHT22;8206;51.440;6.914;2023-03-18T12:37:27;18.10;99.90
16198;DHT22;8206;51.440;6.914;2023-03-18T12:40:07;18.30;99.90
16198;DHT22;8206;51.440;6.914;2023-03-18T12:42:48;18.50;99.90
16198;DHT22;8206;51.440;6.914;2023-03-18T12:45:19;18.50;99.90
16198;DHT22;8206;51.440;6.914;2023-03-18T12:47:48;18.70;99.90
16198;DHT22;8206;51.440;6.914;2023-03-18T12:50:19;18.70;99.90
16198;DHT22;8206;51.440;6.914;2023-03-18T12:52:52;18.90;99.90
16198;DHT22;8206;51.440;6.914;2023-03-18T12:55:22;19.00;99.90
16198;DHT22;8206;51.440;6.914;2023-03-18T12:57:56;19.10;99.90
16198;DHT22;8206;51.440;6.914;2023-03-18T13:00:29;19.10;99.90
16198;DHT22;8206;51.440;6.914;2023-03-18T13:03:01;19.20;99.90
16198;DHT22;8206;51.440;6.914;2023-03-18T13:05:39;19.30;99.90
16198;DHT22;8206;51.440;6.914;2023-03-18T13:11:10;19.00;99.90
16198;DHT22;8206;51.440;6.914;2023-03-18T13:13:43;18.80;99.90
16198;DHT22;8206;51.440;6.914;2023-03-18T13:16:12;18.70;99.90
16198;DHT22;8206;51.440;6.914;2023-03-18T13:18:43;18.60;99.90
16198;DHT22;8206;51.440;6.914;2023-03-18T13:21:18;18.60;99.90
16198;DHT22;8206;51.440;6.914;2023-03-18T13:24:09;18.30;99.90
16198;DHT22;8206;51.440;6.914;2023-03-18T13:26:53;18.30;99.90
16198;DHT22;8206;51.440;6.914;2023-03-18T13:29:28;18.20;99.90
16198;DHT22;8206;51.440;6.914;2023-03-18T13:32:06;18.40;99.90
16198;DHT22;8206;51.440;6.914;2023-03-18T13:34:59;18.40;99.90
16198;DHT22;8206;51.440;6.914;2023-03-18T13:37:52;18.50;99.90
16198;DHT22;8206;51.440;6.914;2023-03-18T13:40:39;18.30;99.90
16198;DHT22;8206;51.440;6.914;2023-03-18T13:43:11;18.20;99.90
16198;DHT22;8206;51.440;6.914;2023-03-18T13:45:41;18.20;99.90
16198;DHT22;8206;51.440;6.914;2023-03-18T13:48:13;18.10;99.90
16198;DHT22;8206;51.440;6.914;2023-03-18T13:50:42;18.00;99.90
16198;DHT22;8206;51.440;6.914;2023-03-18T13:53:21;17.90;99.90
16198;DHT22;8206;51.440;6.914;2023-03-18T13:55:58;18.00;99.90
16198;DHT22;8206;51.440;6.914;2023-03-18T13:58:26;18.10;99.90
16198;DHT22;8206;51.440;6.914;2023-03-18T14:01:29;18.30;99.90
16198;DHT22;8206;51.440;6.914;2023-03-18T14:07:13;18.30;99.90
16198;DHT22;8206;51.440;6.914;2023-03-18T14:09:53;17.70;99.90
16198;DHT22;8206;51.440;6.914;2023-03-18T14:12:36;17.20;99.90
16198;DHT22;8206;51.440;6.914;2023-03-18T14:15:28;17.00;99.90
16198;DHT22;8206;51.440;6.914;2023-03-18T14:18:01;16.60;99.90
16198;DHT22;8206;51.440;6.914;2023-03-18T14:20:36;16.30;99.90
16198;DHT22;8206;51.440;6.914;2023-03-18T14:23:28;15.90;99.90
16198;DHT22;8206;51.440;6.914;2023-03-18T14:26:03;15.60;99.90
16198;DHT22;8206;51.440;6.914;2023-03-18T14:28:41;15.20;99.90
16198;DHT22;8206;51.440;6.914;2023-03-18T14:39:31;13.60;99.90
16198;DHT22;8206;51.440;6.914;2023-03-18T14:42:01;13.90;99.90
16198;DHT22;8206;51.440;6.914;2023-03-18T14:44:35;14.40;99.90
16198;DHT22;8206;51.440;6.914;2023-03-18T14:47:15;15.00;99.90
16198;DHT22;8206;51.440;6.914;2023-03-18T14:49:45;15.70;99.90
16198;DHT22;8206;51.440;6.914;2023-03-18T14:52:23;16.30;99.90
16198;DHT22;8206;51.440;6.914;2023-03-18T14:54:52;16.60;99.90
16198;DHT22;8206;51.440;6.914;2023-03-18T14:57:22;16.70;99.90
16198;DHT22;8206;51.440;6.914;2023-03-18T14:59:49;16.50;99.90
16198;DHT22;8206;51.440;6.914;2023-03-18T15:02:21;16.60;99.90
16198;DHT22;8206;51.440;6.914;2023-03-18T15:04:51;16.80;99.90
16198;DHT22;8206;51.440;6.914;2023-03-18T15:07:19;16.90;99.90
16198;DHT22;8206;51.440;6.914;2023-03-18T15:09:46;16.90;99.90
16198;DHT22;8206;51.440;6.914;2023-03-18T15:12:21;16.90;99.90
16198;DHT22;8206;51.440;6.914;2023-03-18T15:14:52;16.80;99.90
16198;DHT22;8206;51.440;6.914;2023-03-18T15:17:18;16.80;99.90
16198;DHT22;8206;51.440;6.914;2023-03-18T15:19:46;16.60;99.90
16198;DHT22;8206;51.440;6.914;2023-03-18T15:22:19;16.40;99.90
16198;DHT22;8206;51.440;6.914;2023-03-18T15:24:52;16.20;99.90
16198;DHT22;8206;51.440;6.914;2023-03-18T15:27:20;16.10;99.90
16198;DHT22;8206;51.440;6.914;2023-03-18T15:29:51;16.10;99.90
16198;DHT22;8206;51.440;6.914;2023-03-18T15:32:22;16.00;99.90
16198;DHT22;8206;51.440;6.914;2023-03-18T15:34:51;15.70;99.90
16198;DHT22;8206;51.440;6.914;2023-03-18T15:37:33;15.50;99.90
16198;DHT22;8206;51.440;6.914;2023-03-18T15:40:27;15.20;99.90
16198;DHT22;8206;51.440;6.914;2023-03-18T15:42:55;15.10;99.90
16198;DHT22;8206;51.440;6.914;2023-03-18T15:45:27;15.00;99.90
16198;DHT22;8206;51.440;6.914;2023-03-18T15:47:55;15.00;99.90
16198;DHT22;8206;51.440;6.914;2023-03-18T15:50:27;15.10;99.90
16198;DHT22;8206;51.440;6.914;2023-03-18T15:53:06;15.10;99.90
16198;DHT22;8206;51.440;6.914;2023-03-18T15:55:46;15.00;99.90
16198;DHT22;8206;51.440;6.914;2023-03-18T15:58:19;15.10;99.90
16198;DHT22;8206;51.440;6.914;2023-03-18T16:00:48;15.30;99.90
16198;DHT22;8206;51.440;6.914;2023-03-18T16:03:18;15.40;99.90
16198;DHT22;8206;51.440;6.914;2023-03-18T16:05:46;15.40;99.90
16198;DHT22;8206;51.440;6.914;2023-03-18T16:08:14;15.30;99.90
16198;DHT22;8206;51.440;6.914;2023-03-18T16:10:41;15.30;99.90
16198;DHT22;8206;51.440;6.914;2023-03-18T16:13:16;15.30;99.90
16198;DHT22;8206;51.440;6.914;2023-03-18T16:15:44;15.30;99.90
16198;DHT22;8206;51.440;6.914;2023-03-18T16:18:12;15.30;99.90
16198;DHT22;8206;51.440;6.914;2023-03-18T16:20:39;15.20;99.90
16198;DHT22;8206;51.440;6.914;2023-03-18T16:23:09;15.10;99.90
16198;DHT22;8206;51.440;6.914;2023-03-18T16:25:38;15.00;99.90
16198;DHT22;8206;51.440;6.914;2023-03-18T16:28:05;15.00;99.90